sensor_id;sensor_type;location;lat;lon;timestamp;P1;durP1;ratioP1;P2;durP2;ratioP2
24090;SDS011;12272;52.426;17.100;2023-08-01T00:00:43;4.15;;;2.58;;
24090;SDS011;12272;52.426;17.100;2023-08-01T00:05:45;5.88;;;3.03;;
24090;SDS011;12272;52.426;17.100;2023-08-01T00:10:48;5.18;;;2.70;;
24090;SDS011;12272;52.426;17.100;2023-08-01T00:15:50;4.55;;;2.33;;
24090;SDS011;12272;52.426;17.100;2023-08-01T00:21:08;3.95;;;3.10;;
24090;SDS011;12272;52.426;17.100;2023-08-01T00:26:13;7.35;;;2.80;;
24090;SDS011;12272;52.426;17.100;2023-08-01T00:31:16;3.72;;;3.03;;
24090;SDS011;12272;52.426;17.100;2023-08-01T00:36:18;6.55;;;2.97;;
24090;SDS011;12272;52.426;17.100;2023-08-01T00:41:21;5.88;;;2.30;;
24090;SDS011;12272;52.426;17.100;2023-08-01T00:46:23;4.93;;;2.80;;
24090;SDS011;12272;52.426;17.100;2023-08-01T00:51:27;3.35;;;2.15;;
24090;SDS011;12272;52.426;17.100;2023-08-01T00:56:31;6.10;;;2.83;;
24090;SDS011;12272;52.426;17.100;2023-08-01T01:01:33;2.80;;;2.38;;
24090;SDS011;12272;52.426;17.100;2023-08-01T01:06:38;3.05;;;2.55;;
24090;SDS011;12272;52.426;17.100;2023-08-01T01:11:47;3.90;;;2.30;;
24090;SDS011;12272;52.426;17.100;2023-08-01T01:16:49;5.25;;;3.10;;
24090;SDS011;12272;52.426;17.100;2023-08-01T01:21:54;3.35;;;2.58;;
24090;SDS011;12272;52.426;17.100;2023-08-01T01:27:00;3.92;;;2.72;;
24090;SDS011;12272;52.426;17.100;2023-08-01T01:32:05;3.95;;;2.80;;
24090;SDS011;12272;52.426;17.100;2023-08-01T01:37:09;4.40;;;2.42;;
24090;SDS011;12272;52.426;17.100;2023-08-01T01:42:12;3.08;;;2.30;;
24090;SDS011;12272;52.426;17.100;2023-08-01T01:47:15;2.83;;;2.55;;
24090;SDS011;12272;52.426;17.100;2023-08-01T01:52:19;2.97;;;2.55;;
24090;SDS011;12272;52.426;17.100;2023-08-01T01:57:22;9.68;;;3.60;;
24090;SDS011;12272;52.426;17.100;2023-08-01T02:02:25;6.85;;;2.50;;
24090;SDS011;12272;52.426;17.100;2023-08-01T02:07:28;3.17;;;2.65;;
24090;SDS011;12272;52.426;17.100;2023-08-01T02:12:31;4.70;;;2.80;;
24090;SDS011;12272;52.426;17.100;2023-08-01T02:17:34;3.58;;;2.47;;
24090;SDS011;12272;52.426;17.100;2023-08-01T02:22:37;3.75;;;3.00;;
24090;SDS011;12272;52.426;17.100;2023-08-01T02:27:40;4.55;;;2.90;;
24090;SDS011;12272;52.426;17.100;2023-08-01T02:32:42;5.05;;;2.72;;
24090;SDS011;12272;52.426;17.100;2023-08-01T02:37:45;5.22;;;3.00;;
24090;SDS011;12272;52.426;17.100;2023-08-01T02:42:47;6.65;;;2.67;;
24090;SDS011;12272;52.426;17.100;2023-08-01T02:47:50;5.05;;;2.90;;
24090;SDS011;12272;52.426;17.100;2023-08-01T02:52:52;4.70;;;3.42;;
24090;SDS011;12272;52.426;17.100;2023-08-01T02:57:55;4.47;;;3.35;;
24090;SDS011;12272;52.426;17.100;2023-08-01T03:02:58;4.47;;;3.22;;
24090;SDS011;12272;52.426;17.100;2023-08-01T03:08:00;4.95;;;3.38;;
24090;SDS011;12272;52.426;17.100;2023-08-01T03:13:03;4.07;;;3.13;;
24090;SDS011;12272;52.426;17.100;2023-08-01T03:18:06;7.13;;;2.92;;
24090;SDS011;12272;52.426;17.100;2023-08-01T03:23:08;7.85;;;3.05;;
24090;SDS011;12272;52.426;17.100;2023-08-01T03:28:11;5.18;;;3.20;;
24090;SDS011;12272;52.426;17.100;2023-08-01T03:33:14;3.80;;;2.75;;
24090;SDS011;12272;52.426;17.100;2023-08-01T03:38:16;4.28;;;3.17;;
24090;SDS011;12272;52.426;17.100;2023-08-01T03:43:19;4.70;;;3.20;;
24090;SDS011;12272;52.426;17.100;2023-08-01T03:48:25;6.88;;;3.85;;
24090;SDS011;12272;52.426;17.100;2023-08-01T03:53:28;11.55;;;3.38;;
24090;SDS011;12272;52.426;17.100;2023-08-01T03:58:30;3.67;;;2.92;;
24090;SDS011;12272;52.426;17.100;2023-08-01T04:03:33;4.13;;;2.95;;
24090;SDS011;12272;52.426;17.100;2023-08-01T04:08:35;4.18;;;2.97;;
24090;SDS011;12272;52.426;17.100;2023-08-01T04:13:38;4.10;;;3.28;;
24090;SDS011;12272;52.426;17.100;2023-08-01T04:18:40;4.68;;;3.50;;
24090;SDS011;12272;52.426;17.100;2023-08-01T04:23:43;4.43;;;3.05;;
24090;SDS011;12272;52.426;17.100;2023-08-01T04:28:46;4.18;;;3.13;;
24090;SDS011;12272;52.426;17.100;2023-08-01T04:33:49;5.45;;;3.45;;
24090;SDS011;12272;52.426;17.100;2023-08-01T04:38:51;5.72;;;3.92;;
24090;SDS011;12272;52.426;17.100;2023-08-01T04:43:54;4.60;;;3.38;;
24090;SDS011;12272;52.426;17.100;2023-08-01T04:48:56;4.95;;;3.33;;
24090;SDS011;12272;52.426;17.100;2023-08-01T04:53:59;5.35;;;3.33;;
24090;SDS011;12272;52.426;17.100;2023-08-01T04:59:02;4.97;;;3.10;;
24090;SDS011;12272;52.426;17.100;2023-08-01T05:04:04;6.38;;;3.60;;
24090;SDS011;12272;52.426;17.100;2023-08-01T05:09:07;3.08;;;2.85;;
24090;SDS011;12272;52.426;17.100;2023-08-01T05:14:09;6.20;;;3.95;;
24090;SDS011;12272;52.426;17.100;2023-08-01T05:19:12;4.78;;;3.78;;
24090;SDS011;12272;52.426;17.100;2023-08-01T05:24:14;6.78;;;3.72;;
24090;SDS011;12272;52.426;17.100;2023-08-01T05:29:17;6.35;;;3.72;;
24090;SDS011;12272;52.426;17.100;2023-08-01T05:34:20;5.45;;;3.28;;
24090;SDS011;12272;52.426;17.100;2023-08-01T05:39:22;6.57;;;4.13;;
24090;SDS011;12272;52.426;17.100;2023-08-01T05:44:25;3.55;;;2.78;;
24090;SDS011;12272;52.426;17.100;2023-08-01T05:49:28;4.78;;;2.40;;
24090;SDS011;12272;52.426;17.100;2023-08-01T05:54:31;7.28;;;3.88;;
24090;SDS011;12272;52.426;17.100;2023-08-01T05:59:35;6.53;;;3.70;;
24090;SDS011;12272;52.426;17.100;2023-08-01T06:04:38;6.70;;;3.65;;
24090;SDS011;12272;52.426;17.100;2023-08-01T06:09:40;4.63;;;3.35;;
24090;SDS011;12272;52.426;17.100;2023-08-01T06:14:43;6.05;;;3.85;;
24090;SDS011;12272;52.426;17.100;2023-08-01T06:19:46;4.88;;;3.38;;
24090;SDS011;12272;52.426;17.100;2023-08-01T06:24:49;5.05;;;3.17;;
24090;SDS011;12272;52.426;17.100;2023-08-01T06:29:52;6.20;;;4.10;;
24090;SDS011;12272;52.426;17.100;2023-08-01T06:34:54;5.88;;;3.40;;
24090;SDS011;12272;52.426;17.100;2023-08-01T06:39:57;6.55;;;3.65;;
24090;SDS011;12272;52.426;17.100;2023-08-01T06:45:01;7.85;;;3.72;;
24090;SDS011;12272;52.426;17.100;2023-08-01T06:50:03;4.93;;;2.90;;
24090;SDS011;12272;52.426;17.100;2023-08-01T06:55:07;5.88;;;4.10;;
24090;SDS011;12272;52.426;17.100;2023-08-01T07:00:10;3.92;;;3.13;;
24090;SDS011;12272;52.426;17.100;2023-08-01T07:05:13;4.88;;;2.92;;
24090;SDS011;12272;52.426;17.100;2023-08-01T07:10:16;5.03;;;4.40;;
24090;SDS011;12272;52.426;17.100;2023-08-01T07:15:18;8.88;;;3.28;;
24090;SDS011;12272;52.426;17.100;2023-08-01T07:20:21;6.80;;;4.40;;
24090;SDS011;12272;52.426;17.100;2023-08-01T07:25:23;4.68;;;2.90;;
24090;SDS011;12272;52.426;17.100;2023-08-01T07:30:27;11.63;;;5.15;;
24090;SDS011;12272;52.426;17.100;2023-08-01T07:35:30;4.15;;;3.70;;
24090;SDS011;12272;52.426;17.100;2023-08-01T07:40:32;5.68;;;3.72;;
24090;SDS011;12272;52.426;17.100;2023-08-01T07:45:38;2.90;;;2.05;;
24090;SDS011;12272;52.426;17.100;2023-08-01T07:50:41;5.68;;;3.90;;
24090;SDS011;12272;52.426;17.100;2023-08-01T07:55:43;3.00;;;2.25;;
24090;SDS011;12272;52.426;17.100;2023-08-01T08:00:46;4.78;;;3.60;;
24090;SDS011;12272;52.426;17.100;2023-08-01T08:05:49;5.43;;;3.55;;
24090;SDS011;12272;52.426;17.100;2023-08-01T08:10:51;3.30;;;2.63;;
24090;SDS011;12272;52.426;17.100;2023-08-01T08:15:57;4.50;;;4.10;;
24090;SDS011;12272;52.426;17.100;2023-08-01T08:21:01;4.97;;;3.80;;
24090;SDS011;12272;52.426;17.100;2023-08-01T08:26:04;5.55;;;4.30;;
24090;SDS011;12272;52.426;17.100;2023-08-01T08:31:07;3.72;;;3.03;;
24090;SDS011;12272;52.426;17.100;2023-08-01T08:36:10;8.35;;;3.60;;
24090;SDS011;12272;52.426;17.100;2023-08-01T08:41:13;5.50;;;3.47;;
24090;SDS011;12272;52.426;17.100;2023-08-01T08:46:21;4.25;;;3.05;;
24090;SDS011;12272;52.426;17.100;2023-08-01T08:51:30;5.25;;;3.53;;
24090;SDS011;12272;52.426;17.100;2023-08-01T08:56:33;6.80;;;3.25;;
24090;SDS011;12272;52.426;17.100;2023-08-01T09:01:37;5.60;;;3.03;;
24090;SDS011;12272;52.426;17.100;2023-08-01T09:06:45;2.97;;;2.70;;
24090;SDS011;12272;52.426;17.100;2023-08-01T09:11:53;4.65;;;3.45;;
24090;SDS011;12272;52.426;17.100;2023-08-01T09:17:10;3.33;;;3.03;;
24090;SDS011;12272;52.426;17.100;2023-08-01T09:22:14;3.25;;;2.65;;
24090;SDS011;12272;52.426;17.100;2023-08-01T09:27:20;3.45;;;2.63;;
24090;SDS011;12272;52.426;17.100;2023-08-01T09:32:24;3.55;;;2.60;;
24090;SDS011;12272;52.426;17.100;2023-08-01T09:37:27;3.42;;;2.22;;
24090;SDS011;12272;52.426;17.100;2023-08-01T09:42:43;3.58;;;2.08;;
24090;SDS011;12272;52.426;17.100;2023-08-01T09:47:47;4.25;;;3.13;;
24090;SDS011;12272;52.426;17.100;2023-08-01T09:52:51;5.20;;;3.03;;
24090;SDS011;12272;52.426;17.100;2023-08-01T09:57:56;2.65;;;2.45;;
24090;SDS011;12272;52.426;17.100;2023-08-01T10:03:00;2.67;;;2.33;;
24090;SDS011;12272;52.426;17.100;2023-08-01T10:08:05;6.45;;;2.58;;
24090;SDS011;12272;52.426;17.100;2023-08-01T10:13:08;3.03;;;2.22;;
24090;SDS011;12272;52.426;17.100;2023-08-01T10:18:14;2.40;;;2.20;;
24090;SDS011;12272;52.426;17.100;2023-08-01T10:23:17;5.55;;;2.60;;
24090;SDS011;12272;52.426;17.100;2023-08-01T10:28:30;2.28;;;2.03;;
24090;SDS011;12272;52.426;17.100;2023-08-01T10:33:37;4.20;;;3.65;;
24090;SDS011;12272;52.426;17.100;2023-08-01T10:38:52;3.85;;;3.42;;
24090;SDS011;12272;52.426;17.100;2023-08-01T10:44:08;6.53;;;3.72;;
24090;SDS011;12272;52.426;17.100;2023-08-01T10:49:12;4.38;;;3.97;;
24090;SDS011;12272;52.426;17.100;2023-08-01T10:54:19;7.40;;;4.15;;
24090;SDS011;12272;52.426;17.100;2023-08-01T10:59:25;14.25;;;5.60;;
24090;SDS011;12272;52.426;17.100;2023-08-01T11:04:28;5.15;;;3.28;;
24090;SDS011;12272;52.426;17.100;2023-08-01T11:09:30;7.32;;;6.00;;
24090;SDS011;12272;52.426;17.100;2023-08-01T11:14:33;10.35;;;5.55;;
24090;SDS011;12272;52.426;17.100;2023-08-01T11:19:35;3.90;;;3.58;;
24090;SDS011;12272;52.426;17.100;2023-08-01T11:24:38;6.35;;;5.65;;
24090;SDS011;12272;52.426;17.100;2023-08-01T11:29:41;6.63;;;5.68;;
24090;SDS011;12272;52.426;17.100;2023-08-01T11:34:44;5.30;;;4.80;;
24090;SDS011;12272;52.426;17.100;2023-08-01T11:39:51;6.72;;;5.57;;
24090;SDS011;12272;52.426;17.100;2023-08-01T11:44:54;7.47;;;6.50;;
24090;SDS011;12272;52.426;17.100;2023-08-01T11:50:13;8.55;;;7.60;;
24090;SDS011;12272;52.426;17.100;2023-08-01T11:55:21;5.60;;;4.95;;
24090;SDS011;12272;52.426;17.100;2023-08-01T12:00:25;4.72;;;3.53;;
24090;SDS011;12272;52.426;17.100;2023-08-01T12:05:30;9.98;;;7.40;;
24090;SDS011;12272;52.426;17.100;2023-08-01T12:10:37;2.83;;;2.00;;
24090;SDS011;12272;52.426;17.100;2023-08-01T12:15:41;1.92;;;1.73;;
24090;SDS011;12272;52.426;17.100;2023-08-01T12:20:43;2.13;;;1.67;;
24090;SDS011;12272;52.426;17.100;2023-08-01T12:25:46;1.58;;;1.48;;
24090;SDS011;12272;52.426;17.100;2023-08-01T12:30:48;3.58;;;1.52;;
24090;SDS011;12272;52.426;17.100;2023-08-01T12:35:53;1.77;;;1.35;;
24090;SDS011;12272;52.426;17.100;2023-08-01T12:40:55;6.43;;;1.83;;
24090;SDS011;12272;52.426;17.100;2023-08-01T12:45:58;2.28;;;2.08;;
24090;SDS011;12272;52.426;17.100;2023-08-01T12:51:02;1.52;;;1.42;;
24090;SDS011;12272;52.426;17.100;2023-08-01T12:56:04;1.67;;;1.40;;
24090;SDS011;12272;52.426;17.100;2023-08-01T13:01:07;1.23;;;1.05;;
24090;SDS011;12272;52.426;17.100;2023-08-01T13:06:10;3.58;;;1.75;;
24090;SDS011;12272;52.426;17.100;2023-08-01T13:11:15;2.10;;;2.00;;
24090;SDS011;12272;52.426;17.100;2023-08-01T13:16:17;2.75;;;1.95;;
24090;SDS011;12272;52.426;17.100;2023-08-01T13:21:21;1.92;;;1.83;;
24090;SDS011;12272;52.426;17.100;2023-08-01T13:41:36;3.45;;;2.22;;
24090;SDS011;12272;52.426;17.100;2023-08-01T13:46:38;2.88;;;1.80;;
24090;SDS011;12272;52.426;17.100;2023-08-01T13:51:41;2.05;;;1.65;;
24090;SDS011;12272;52.426;17.100;2023-08-01T13:56:43;1.73;;;1.63;;
24090;SDS011;12272;52.426;17.100;2023-08-01T14:01:46;2.50;;;2.30;;
24090;SDS011;12272;52.426;17.100;2023-08-01T14:06:49;1.70;;;1.60;;
24090;SDS011;12272;52.426;17.100;2023-08-01T14:11:51;2.42;;;2.22;;
24090;SDS011;12272;52.426;17.100;2023-08-01T14:16:54;2.42;;;1.95;;
24090;SDS011;12272;52.426;17.100;2023-08-01T14:21:56;2.42;;;2.22;;
24090;SDS011;12272;52.426;17.100;2023-08-01T14:26:59;2.22;;;2.03;;
24090;SDS011;12272;52.426;17.100;2023-08-01T14:32:02;2.40;;;2.20;;
24090;SDS011;12272;52.426;17.100;2023-08-01T14:37:05;2.28;;;2.08;;
24090;SDS011;12272;52.426;17.100;2023-08-01T14:42:08;2.40;;;2.13;;
24090;SDS011;12272;52.426;17.100;2023-08-01T14:47:10;2.33;;;1.92;;
24090;SDS011;12272;52.426;17.100;2023-08-01T14:52:13;2.20;;;2.00;;
24090;SDS011;12272;52.426;17.100;2023-08-01T14:57:15;2.50;;;2.30;;
24090;SDS011;12272;52.426;17.100;2023-08-01T15:02:18;3.20;;;1.77;;
24090;SDS011;12272;52.426;17.100;2023-08-01T15:07:23;1.90;;;1.80;;
24090;SDS011;12272;52.426;17.100;2023-08-01T15:12:26;2.08;;;1.88;;
24090;SDS011;12272;52.426;17.100;2023-08-01T15:17:29;2.38;;;1.85;;
24090;SDS011;12272;52.426;17.100;2023-08-01T15:22:31;1.95;;;1.83;;
24090;SDS011;12272;52.426;17.100;2023-08-01T15:27:34;3.05;;;1.83;;
24090;SDS011;12272;52.426;17.100;2023-08-01T15:32:37;2.05;;;1.73;;
24090;SDS011;12272;52.426;17.100;2023-08-01T15:37:39;2.75;;;0.98;;
24090;SDS011;12272;52.426;17.100;2023-08-01T15:42:42;2.13;;;1.92;;
24090;SDS011;12272;52.426;17.100;2023-08-01T15:47:44;2.10;;;1.90;;
24090;SDS011;12272;52.426;17.100;2023-08-01T15:52:47;1.80;;;1.70;;
24090;SDS011;12272;52.426;17.100;2023-08-01T15:57:49;1.55;;;1.40;;
24090;SDS011;12272;52.426;17.100;2023-08-01T16:02:52;1.52;;;1.42;;
24090;SDS011;12272;52.426;17.100;2023-08-01T16:07:54;1.52;;;1.42;;
24090;SDS011;12272;52.426;17.100;2023-08-01T16:12:57;1.50;;;1.40;;
24090;SDS011;12272;52.426;17.100;2023-08-01T16:17:59;3.42;;;1.80;;
24090;SDS011;12272;52.426;17.100;2023-08-01T16:23:02;1.95;;;1.75;;
24090;SDS011;12272;52.426;17.100;2023-08-01T16:28:05;1.15;;;1.05;;
24090;SDS011;12272;52.426;17.100;2023-08-01T16:33:07;1.90;;;1.80;;
24090;SDS011;12272;52.426;17.100;2023-08-01T16:38:10;1.98;;;1.85;;
24090;SDS011;12272;52.426;17.100;2023-08-01T16:43:12;1.67;;;1.58;;
24090;SDS011;12272;52.426;17.100;2023-08-01T16:48:15;2.10;;;1.88;;
24090;SDS011;12272;52.426;17.100;2023-08-01T16:53:17;1.80;;;1.35;;
24090;SDS011;12272;52.426;17.100;2023-08-01T16:58:21;1.83;;;1.73;;
24090;SDS011;12272;52.426;17.100;2023-08-01T17:03:23;2.08;;;1.88;;
24090;SDS011;12272;52.426;17.100;2023-08-01T17:08:26;2.17;;;1.95;;
24090;SDS011;12272;52.426;17.100;2023-08-01T17:13:29;2.38;;;1.83;;
24090;SDS011;12272;52.426;17.100;2023-08-01T17:18:31;3.75;;;1.70;;
24090;SDS011;12272;52.426;17.100;2023-08-01T17:23:34;2.17;;;1.92;;
24090;SDS011;12272;52.426;17.100;2023-08-01T17:28:36;2.13;;;1.92;;
24090;SDS011;12272;52.426;17.100;2023-08-01T17:33:39;2.22;;;2.03;;
24090;SDS011;12272;52.426;17.100;2023-08-01T17:38:42;1.75;;;1.65;;
24090;SDS011;12272;52.426;17.100;2023-08-01T17:43:45;3.78;;;1.75;;
24090;SDS011;12272;52.426;17.100;2023-08-01T17:48:47;2.22;;;2.00;;
24090;SDS011;12272;52.426;17.100;2023-08-01T17:53:50;2.05;;;1.88;;
24090;SDS011;12272;52.426;17.100;2023-08-01T17:58:53;2.40;;;2.20;;
24090;SDS011;12272;52.426;17.100;2023-08-01T18:03:55;2.30;;;1.70;;
24090;SDS011;12272;52.426;17.100;2023-08-01T18:08:59;1.42;;;1.33;;
24090;SDS011;12272;52.426;17.100;2023-08-01T18:14:01;4.57;;;2.20;;
24090;SDS011;12272;52.426;17.100;2023-08-01T18:19:04;2.20;;;2.00;;
24090;SDS011;12272;52.426;17.100;2023-08-01T18:24:06;2.55;;;1.10;;
24090;SDS011;12272;52.426;17.100;2023-08-01T18:29:09;1.60;;;1.50;;
24090;SDS011;12272;52.426;17.100;2023-08-01T18:34:12;2.20;;;2.08;;
24090;SDS011;12272;52.426;17.100;2023-08-01T18:39:15;2.17;;;1.98;;
24090;SDS011;12272;52.426;17.100;2023-08-01T18:44:18;1.50;;;1.40;;
24090;SDS011;12272;52.426;17.100;2023-08-01T18:49:21;2.25;;;1.77;;
24090;SDS011;12272;52.426;17.100;2023-08-01T18:54:23;1.90;;;1.70;;
24090;SDS011;12272;52.426;17.100;2023-08-01T18:59:26;2.47;;;2.20;;
24090;SDS011;12272;52.426;17.100;2023-08-01T19:04:29;2.33;;;2.13;;
24090;SDS011;12272;52.426;17.100;2023-08-01T19:09:32;1.83;;;1.73;;
24090;SDS011;12272;52.426;17.100;2023-08-01T19:14:34;2.47;;;2.22;;
24090;SDS011;12272;52.426;17.100;2023-08-01T19:19:37;2.47;;;2.28;;
24090;SDS011;12272;52.426;17.100;2023-08-01T19:24:39;2.40;;;2.20;;
24090;SDS011;12272;52.426;17.100;2023-08-01T19:29:42;1.70;;;1.48;;
24090;SDS011;12272;52.426;17.100;2023-08-01T19:34:48;3.85;;;2.08;;
24090;SDS011;12272;52.426;17.100;2023-08-01T19:39:51;2.10;;;1.85;;
24090;SDS011;12272;52.426;17.100;2023-08-01T19:44:54;3.28;;;2.97;;
24090;SDS011;12272;52.426;17.100;2023-08-01T19:49:57;2.40;;;1.65;;
24090;SDS011;12272;52.426;17.100;2023-08-01T19:54:59;2.20;;;1.90;;
24090;SDS011;12272;52.426;17.100;2023-08-01T20:00:02;2.88;;;2.30;;
24090;SDS011;12272;52.426;17.100;2023-08-01T20:05:12;2.05;;;1.85;;
24090;SDS011;12272;52.426;17.100;2023-08-01T20:10:15;3.83;;;1.45;;
24090;SDS011;12272;52.426;17.100;2023-08-01T20:15:18;3.38;;;2.25;;
24090;SDS011;12272;52.426;17.100;2023-08-01T20:20:21;2.70;;;2.47;;
24090;SDS011;12272;52.426;17.100;2023-08-01T20:25:24;3.90;;;1.83;;
24090;SDS011;12272;52.426;17.100;2023-08-01T20:30:27;1.67;;;1.58;;
24090;SDS011;12272;52.426;17.100;2023-08-01T20:35:29;4.90;;;2.33;;
24090;SDS011;12272;52.426;17.100;2023-08-01T20:40:32;2.88;;;1.73;;
24090;SDS011;12272;52.426;17.100;2023-08-01T20:45:35;2.72;;;2.00;;
24090;SDS011;12272;52.426;17.100;2023-08-01T20:50:38;2.20;;;2.00;;
24090;SDS011;12272;52.426;17.100;2023-08-01T20:55:40;1.92;;;1.75;;
24090;SDS011;12272;52.426;17.100;2023-08-01T21:00:43;6.15;;;2.38;;
24090;SDS011;12272;52.426;17.100;2023-08-01T21:05:45;2.20;;;2.00;;
24090;SDS011;12272;52.426;17.100;2023-08-01T21:10:48;2.95;;;2.30;;
24090;SDS011;12272;52.426;17.100;2023-08-01T21:15:50;2.35;;;2.00;;
24090;SDS011;12272;52.426;17.100;2023-08-01T21:20:53;2.50;;;1.77;;
24090;SDS011;12272;52.426;17.100;2023-08-01T21:25:56;2.67;;;1.70;;
24090;SDS011;12272;52.426;17.100;2023-08-01T21:30:58;1.92;;;1.73;;
24090;SDS011;12272;52.426;17.100;2023-08-01T21:36:01;1.70;;;1.60;;
24090;SDS011;12272;52.426;17.100;2023-08-01T21:41:03;1.67;;;1.58;;
24090;SDS011;12272;52.426;17.100;2023-08-01T21:46:06;4.13;;;1.90;;
24090;SDS011;12272;52.426;17.100;2023-08-01T21:51:09;3.08;;;1.52;;
24090;SDS011;12272;52.426;17.100;2023-08-01T21:56:11;1.88;;;1.40;;
24090;SDS011;12272;52.426;17.100;2023-08-01T22:01:14;1.70;;;1.42;;
24090;SDS011;12272;52.426;17.100;2023-08-01T22:06:16;1.55;;;1.45;;
24090;SDS011;12272;52.426;17.100;2023-08-01T22:11:21;1.85;;;1.75;;
24090;SDS011;12272;52.426;17.100;2023-08-01T22:16:23;2.00;;;1.45;;
24090;SDS011;12272;52.426;17.100;2023-08-01T22:21:26;2.08;;;1.42;;
24090;SDS011;12272;52.426;17.100;2023-08-01T22:26:28;4.43;;;1.73;;
24090;SDS011;12272;52.426;17.100;2023-08-01T22:31:31;1.92;;;1.70;;
24090;SDS011;12272;52.426;17.100;2023-08-01T22:36:36;2.20;;;1.60;;
24090;SDS011;12272;52.426;17.100;2023-08-01T22:41:39;1.98;;;1.80;;
24090;SDS011;12272;52.426;17.100;2023-08-01T22:46:42;2.00;;;1.70;;
24090;SDS011;12272;52.426;17.100;2023-08-01T22:51:45;2.08;;;1.58;;
24090;SDS011;12272;52.426;17.100;2023-08-01T22:56:48;3.15;;;2.20;;
24090;SDS011;12272;52.426;17.100;2023-08-01T23:01:50;2.78;;;1.85;;
24090;SDS011;12272;52.426;17.100;2023-08-01T23:06:53;1.75;;;1.65;;
24090;SDS011;12272;52.426;17.100;2023-08-01T23:11:56;1.58;;;1.48;;
24090;SDS011;12272;52.426;17.100;2023-08-01T23:16:58;2.17;;;1.38;;
24090;SDS011;12272;52.426;17.100;2023-08-01T23:22:01;2.15;;;1.50;;
24090;SDS011;12272;52.426;17.100;2023-08-01T23:27:04;4.28;;;1.80;;
24090;SDS011;12272;52.426;17.100;2023-08-01T23:32:06;4.18;;;1.38;;
24090;SDS011;12272;52.426;17.100;2023-08-01T23:37:09;1.75;;;1.65;;
24090;SDS011;12272;52.426;17.100;2023-08-01T23:42:11;4.07;;;1.77;;
24090;SDS011;12272;52.426;17.100;2023-08-01T23:47:14;1.45;;;1.35;;
24090;SDS011;12272;52.426;17.100;2023-08-01T23:52:16;4.88;;;1.60;;
24090;SDS011;12272;52.426;17.100;2023-08-01T23:57:19;3.42;;;1.58;;
